sensor_id;sensor_type;location;lat;lon;timestamp;P1;durP1;ratioP1;P2;durP2;ratioP2
16442;SDS011;8331;51.654;14.376;2023-05-16T00:02:17;8.17;;;7.47;;
16442;SDS011;8331;51.654;14.376;2023-05-16T00:04:44;7.80;;;7.20;;
16442;SDS011;8331;51.654;14.376;2023-05-16T00:07:11;7.87;;;7.37;;
16442;SDS011;8331;51.654;14.376;2023-05-16T00:09:38;7.80;;;7.10;;
16442;SDS011;8331;51.654;14.376;2023-05-16T00:12:04;7.63;;;7.13;;
16442;SDS011;8331;51.654;14.376;2023-05-16T00:14:31;7.83;;;7.33;;
16442;SDS011;8331;51.654;14.376;2023-05-16T00:16:58;8.27;;;7.37;;
16442;SDS011;8331;51.654;14.376;2023-05-16T00:19:25;8.10;;;7.43;;
16442;SDS011;8331;51.654;14.376;2023-05-16T00:21:52;8.23;;;7.43;;
16442;SDS011;8331;51.654;14.376;2023-05-16T00:24:19;8.27;;;7.73;;
16442;SDS011;8331;51.654;14.376;2023-05-16T00:26:46;8.10;;;7.40;;
16442;SDS011;8331;51.654;14.376;2023-05-16T00:29:13;8.00;;;7.17;;
16442;SDS011;8331;51.654;14.376;2023-05-16T00:31:40;7.50;;;7.00;;
16442;SDS011;8331;51.654;14.376;2023-05-16T00:34:06;8.20;;;7.60;;
16442;SDS011;8331;51.654;14.376;2023-05-16T00:36:33;7.70;;;7.20;;
16442;SDS011;8331;51.654;14.376;2023-05-16T00:39:01;8.00;;;7.37;;
16442;SDS011;8331;51.654;14.376;2023-05-16T00:41:28;8.10;;;7.43;;
16442;SDS011;8331;51.654;14.376;2023-05-16T00:43:54;7.87;;;7.23;;
16442;SDS011;8331;51.654;14.376;2023-05-16T00:46:21;8.37;;;7.80;;
16442;SDS011;8331;51.654;14.376;2023-05-16T00:48:48;8.17;;;7.67;;
16442;SDS011;8331;51.654;14.376;2023-05-16T00:51:14;8.43;;;7.60;;
16442;SDS011;8331;51.654;14.376;2023-05-16T00:53:41;7.67;;;7.17;;
16442;SDS011;8331;51.654;14.376;2023-05-16T00:56:08;8.10;;;7.40;;
16442;SDS011;8331;51.654;14.376;2023-05-16T00:58:35;8.20;;;7.50;;
16442;SDS011;8331;51.654;14.376;2023-05-16T01:01:02;7.93;;;7.40;;
16442;SDS011;8331;51.654;14.376;2023-05-16T01:03:30;8.87;;;7.53;;
16442;SDS011;8331;51.654;14.376;2023-05-16T01:05:58;7.90;;;7.30;;
16442;SDS011;8331;51.654;14.376;2023-05-16T01:08:25;7.77;;;7.17;;
16442;SDS011;8331;51.654;14.376;2023-05-16T01:16:11;8.43;;;7.83;;
16442;SDS011;8331;51.654;14.376;2023-05-16T01:21:38;8.77;;;8.00;;
16442;SDS011;8331;51.654;14.376;2023-05-16T01:24:18;10.47;;;8.13;;
16442;SDS011;8331;51.654;14.376;2023-05-16T01:26:48;8.37;;;7.77;;
16442;SDS011;8331;51.654;14.376;2023-05-16T01:29:15;8.37;;;7.57;;
16442;SDS011;8331;51.654;14.376;2023-05-16T01:31:42;8.23;;;7.47;;
16442;SDS011;8331;51.654;14.376;2023-05-16T01:34:08;7.97;;;7.37;;
16442;SDS011;8331;51.654;14.376;2023-05-16T01:36:39;8.67;;;8.07;;
16442;SDS011;8331;51.654;14.376;2023-05-16T01:39:26;8.60;;;7.90;;
16442;SDS011;8331;51.654;14.376;2023-05-16T01:42:09;8.80;;;7.97;;
16442;SDS011;8331;51.654;14.376;2023-05-16T01:44:44;8.63;;;7.93;;
16442;SDS011;8331;51.654;14.376;2023-05-16T01:47:15;8.57;;;7.97;;
16442;SDS011;8331;51.654;14.376;2023-05-16T01:49:45;8.17;;;7.47;;
16442;SDS011;8331;51.654;14.376;2023-05-16T01:52:18;8.73;;;8.13;;
16442;SDS011;8331;51.654;14.376;2023-05-16T01:54:46;8.77;;;7.97;;
16442;SDS011;8331;51.654;14.376;2023-05-16T01:57:13;9.00;;;8.10;;
16442;SDS011;8331;51.654;14.376;2023-05-16T01:59:42;8.63;;;8.03;;
16442;SDS011;8331;51.654;14.376;2023-05-16T02:02:09;8.67;;;8.00;;
16442;SDS011;8331;51.654;14.376;2023-05-16T02:04:36;8.80;;;8.20;;
16442;SDS011;8331;51.654;14.376;2023-05-16T02:07:04;9.10;;;8.30;;
16442;SDS011;8331;51.654;14.376;2023-05-16T02:09:31;8.50;;;7.83;;
16442;SDS011;8331;51.654;14.376;2023-05-16T02:11:58;8.53;;;7.93;;
16442;SDS011;8331;51.654;14.376;2023-05-16T02:14:25;8.73;;;8.13;;
16442;SDS011;8331;51.654;14.376;2023-05-16T02:16:52;8.60;;;7.77;;
16442;SDS011;8331;51.654;14.376;2023-05-16T02:19:19;8.93;;;8.23;;
16442;SDS011;8331;51.654;14.376;2023-05-16T02:21:46;8.40;;;7.60;;
16442;SDS011;8331;51.654;14.376;2023-05-16T02:24:12;8.60;;;7.80;;
16442;SDS011;8331;51.654;14.376;2023-05-16T02:26:39;8.47;;;7.87;;
16442;SDS011;8331;51.654;14.376;2023-05-16T02:29:06;8.27;;;7.63;;
16442;SDS011;8331;51.654;14.376;2023-05-16T02:31:32;8.10;;;7.60;;
16442;SDS011;8331;51.654;14.376;2023-05-16T02:34:00;8.60;;;8.00;;
16442;SDS011;8331;51.654;14.376;2023-05-16T02:36:27;8.03;;;7.50;;
16442;SDS011;8331;51.654;14.376;2023-05-16T02:38:54;8.37;;;7.80;;
16442;SDS011;8331;51.654;14.376;2023-05-16T02:41:21;8.27;;;7.67;;
16442;SDS011;8331;51.654;14.376;2023-05-16T02:43:48;8.13;;;7.57;;
16442;SDS011;8331;51.654;14.376;2023-05-16T02:46:24;8.10;;;7.50;;
16442;SDS011;8331;51.654;14.376;2023-05-16T02:48:53;8.40;;;7.80;;
16442;SDS011;8331;51.654;14.376;2023-05-16T02:51:20;9.43;;;8.53;;
16442;SDS011;8331;51.654;14.376;2023-05-16T02:53:47;8.53;;;7.73;;
16442;SDS011;8331;51.654;14.376;2023-05-16T02:56:14;8.67;;;7.97;;
16442;SDS011;8331;51.654;14.376;2023-05-16T02:58:41;8.63;;;7.93;;
16442;SDS011;8331;51.654;14.376;2023-05-16T03:01:08;8.57;;;7.70;;
16442;SDS011;8331;51.654;14.376;2023-05-16T03:03:35;9.90;;;9.10;;
16442;SDS011;8331;51.654;14.376;2023-05-16T03:06:02;10.20;;;9.37;;
16442;SDS011;8331;51.654;14.376;2023-05-16T03:08:31;9.80;;;9.03;;
16442;SDS011;8331;51.654;14.376;2023-05-16T03:10:57;11.00;;;9.93;;
16442;SDS011;8331;51.654;14.376;2023-05-16T03:13:24;10.17;;;9.37;;
16442;SDS011;8331;51.654;14.376;2023-05-16T03:15:51;10.20;;;9.50;;
16442;SDS011;8331;51.654;14.376;2023-05-16T03:18:18;10.53;;;9.67;;
16442;SDS011;8331;51.654;14.376;2023-05-16T03:20:44;11.53;;;10.60;;
16442;SDS011;8331;51.654;14.376;2023-05-16T03:23:11;11.33;;;10.07;;
16442;SDS011;8331;51.654;14.376;2023-05-16T03:25:37;10.97;;;10.17;;
16442;SDS011;8331;51.654;14.376;2023-05-16T03:28:04;10.80;;;10.00;;
16442;SDS011;8331;51.654;14.376;2023-05-16T03:30:33;12.50;;;11.70;;
16442;SDS011;8331;51.654;14.376;2023-05-16T03:32:59;11.83;;;10.97;;
16442;SDS011;8331;51.654;14.376;2023-05-16T03:35:26;11.93;;;10.63;;
16442;SDS011;8331;51.654;14.376;2023-05-16T03:37:54;12.97;;;11.90;;
16442;SDS011;8331;51.654;14.376;2023-05-16T03:40:21;12.83;;;11.80;;
16442;SDS011;8331;51.654;14.376;2023-05-16T03:42:47;12.57;;;11.67;;
16442;SDS011;8331;51.654;14.376;2023-05-16T03:45:14;13.30;;;12.17;;
16442;SDS011;8331;51.654;14.376;2023-05-16T03:47:40;12.87;;;11.87;;
16442;SDS011;8331;51.654;14.376;2023-05-16T03:50:08;13.50;;;12.47;;
16442;SDS011;8331;51.654;14.376;2023-05-16T03:52:35;12.93;;;12.03;;
16442;SDS011;8331;51.654;14.376;2023-05-16T03:55:02;13.57;;;12.23;;
16442;SDS011;8331;51.654;14.376;2023-05-16T03:57:30;12.97;;;12.00;;
16442;SDS011;8331;51.654;14.376;2023-05-16T03:59:56;13.90;;;12.53;;
16442;SDS011;8331;51.654;14.376;2023-05-16T04:02:23;12.90;;;11.93;;
16442;SDS011;8331;51.654;14.376;2023-05-16T04:04:50;14.27;;;12.67;;
16442;SDS011;8331;51.654;14.376;2023-05-16T04:07:17;14.37;;;12.83;;
16442;SDS011;8331;51.654;14.376;2023-05-16T04:09:43;14.97;;;13.50;;
16442;SDS011;8331;51.654;14.376;2023-05-16T04:12:10;14.70;;;12.93;;
16442;SDS011;8331;51.654;14.376;2023-05-16T04:14:36;13.40;;;12.10;;
16442;SDS011;8331;51.654;14.376;2023-05-16T04:17:03;14.00;;;12.80;;
16442;SDS011;8331;51.654;14.376;2023-05-16T04:19:30;15.13;;;13.63;;
16442;SDS011;8331;51.654;14.376;2023-05-16T04:21:57;14.13;;;12.77;;
16442;SDS011;8331;51.654;14.376;2023-05-16T04:24:23;16.20;;;12.80;;
16442;SDS011;8331;51.654;14.376;2023-05-16T04:26:51;15.40;;;14.10;;
16442;SDS011;8331;51.654;14.376;2023-05-16T04:29:18;16.13;;;14.63;;
16442;SDS011;8331;51.654;14.376;2023-05-16T04:31:45;15.33;;;13.87;;
16442;SDS011;8331;51.654;14.376;2023-05-16T04:34:11;15.83;;;14.17;;
16442;SDS011;8331;51.654;14.376;2023-05-16T04:36:38;15.10;;;13.70;;
16442;SDS011;8331;51.654;14.376;2023-05-16T04:39:05;15.10;;;13.73;;
16442;SDS011;8331;51.654;14.376;2023-05-16T04:41:32;14.70;;;13.40;;
16442;SDS011;8331;51.654;14.376;2023-05-16T04:44:01;15.33;;;13.73;;
16442;SDS011;8331;51.654;14.376;2023-05-16T04:46:29;14.53;;;13.37;;
16442;SDS011;8331;51.654;14.376;2023-05-16T04:48:56;16.10;;;14.60;;
16442;SDS011;8331;51.654;14.376;2023-05-16T04:51:22;14.90;;;13.40;;
16442;SDS011;8331;51.654;14.376;2023-05-16T04:53:49;16.77;;;13.63;;
16442;SDS011;8331;51.654;14.376;2023-05-16T04:56:16;15.67;;;14.17;;
16442;SDS011;8331;51.654;14.376;2023-05-16T04:58:43;15.40;;;13.90;;
16442;SDS011;8331;51.654;14.376;2023-05-16T05:01:09;15.90;;;14.60;;
16442;SDS011;8331;51.654;14.376;2023-05-16T05:03:36;17.20;;;14.20;;
16442;SDS011;8331;51.654;14.376;2023-05-16T05:06:03;14.70;;;13.40;;
16442;SDS011;8331;51.654;14.376;2023-05-16T05:08:30;16.93;;;15.33;;
16442;SDS011;8331;51.654;14.376;2023-05-16T05:10:56;15.60;;;13.97;;
16442;SDS011;8331;51.654;14.376;2023-05-16T05:13:23;16.83;;;15.23;;
16442;SDS011;8331;51.654;14.376;2023-05-16T05:15:49;15.60;;;14.17;;
16442;SDS011;8331;51.654;14.376;2023-05-16T05:18:17;14.53;;;13.30;;
16442;SDS011;8331;51.654;14.376;2023-05-16T05:20:44;18.87;;;15.00;;
16442;SDS011;8331;51.654;14.376;2023-05-16T05:23:10;15.20;;;13.60;;
16442;SDS011;8331;51.654;14.376;2023-05-16T05:25:37;16.43;;;14.77;;
16442;SDS011;8331;51.654;14.376;2023-05-16T05:28:04;16.00;;;14.60;;
16442;SDS011;8331;51.654;14.376;2023-05-16T05:30:31;17.00;;;14.90;;
16442;SDS011;8331;51.654;14.376;2023-05-16T05:32:57;17.63;;;14.83;;
16442;SDS011;8331;51.654;14.376;2023-05-16T05:35:24;16.90;;;15.10;;
16442;SDS011;8331;51.654;14.376;2023-05-16T05:37:51;17.50;;;15.70;;
16442;SDS011;8331;51.654;14.376;2023-05-16T05:40:18;16.67;;;14.90;;
16442;SDS011;8331;51.654;14.376;2023-05-16T05:42:45;17.33;;;15.53;;
16442;SDS011;8331;51.654;14.376;2023-05-16T05:45:13;17.03;;;15.40;;
16442;SDS011;8331;51.654;14.376;2023-05-16T05:47:40;16.83;;;15.30;;
16442;SDS011;8331;51.654;14.376;2023-05-16T05:50:07;17.87;;;15.83;;
16442;SDS011;8331;51.654;14.376;2023-05-16T05:52:34;15.80;;;14.33;;
16442;SDS011;8331;51.654;14.376;2023-05-16T05:55:00;19.03;;;15.40;;
16442;SDS011;8331;51.654;14.376;2023-05-16T05:57:27;18.07;;;16.10;;
16442;SDS011;8331;51.654;14.376;2023-05-16T05:59:53;21.00;;;16.13;;
16442;SDS011;8331;51.654;14.376;2023-05-16T06:02:20;16.50;;;15.00;;
16442;SDS011;8331;51.654;14.376;2023-05-16T06:04:47;16.37;;;14.80;;
16442;SDS011;8331;51.654;14.376;2023-05-16T06:07:13;16.30;;;14.63;;
16442;SDS011;8331;51.654;14.376;2023-05-16T06:09:41;18.63;;;15.87;;
16442;SDS011;8331;51.654;14.376;2023-05-16T06:12:08;16.20;;;14.60;;
16442;SDS011;8331;51.654;14.376;2023-05-16T06:14:35;15.80;;;14.27;;
16442;SDS011;8331;51.654;14.376;2023-05-16T06:17:01;16.60;;;14.63;;
16442;SDS011;8331;51.654;14.376;2023-05-16T06:19:28;15.63;;;14.03;;
16442;SDS011;8331;51.654;14.376;2023-05-16T06:21:55;16.83;;;15.07;;
16442;SDS011;8331;51.654;14.376;2023-05-16T06:24:21;17.17;;;15.40;;
16442;SDS011;8331;51.654;14.376;2023-05-16T06:26:48;16.90;;;15.30;;
16442;SDS011;8331;51.654;14.376;2023-05-16T06:29:16;15.50;;;13.87;;
16442;SDS011;8331;51.654;14.376;2023-05-16T06:31:43;16.30;;;14.80;;
16442;SDS011;8331;51.654;14.376;2023-05-16T06:34:09;14.97;;;13.67;;
16442;SDS011;8331;51.654;14.376;2023-05-16T06:36:36;15.93;;;14.43;;
16442;SDS011;8331;51.654;14.376;2023-05-16T06:39:03;15.90;;;14.30;;
16442;SDS011;8331;51.654;14.376;2023-05-16T06:41:30;15.87;;;14.40;;
16442;SDS011;8331;51.654;14.376;2023-05-16T06:43:56;18.63;;;14.43;;
16442;SDS011;8331;51.654;14.376;2023-05-16T06:46:23;16.67;;;14.80;;
16442;SDS011;8331;51.654;14.376;2023-05-16T06:48:50;15.00;;;13.43;;
16442;SDS011;8331;51.654;14.376;2023-05-16T06:51:16;16.30;;;13.83;;
16442;SDS011;8331;51.654;14.376;2023-05-16T06:53:43;15.17;;;13.83;;
16442;SDS011;8331;51.654;14.376;2023-05-16T06:56:10;16.73;;;15.07;;
16442;SDS011;8331;51.654;14.376;2023-05-16T06:58:36;16.40;;;14.80;;
16442;SDS011;8331;51.654;14.376;2023-05-16T07:01:03;16.77;;;15.07;;
16442;SDS011;8331;51.654;14.376;2023-05-16T07:03:30;20.73;;;17.90;;
16442;SDS011;8331;51.654;14.376;2023-05-16T07:05:57;15.37;;;13.97;;
16442;SDS011;8331;51.654;14.376;2023-05-16T07:08:24;17.80;;;15.73;;
16442;SDS011;8331;51.654;14.376;2023-05-16T07:10:51;17.33;;;15.43;;
16442;SDS011;8331;51.654;14.376;2023-05-16T07:13:18;17.60;;;15.80;;
16442;SDS011;8331;51.654;14.376;2023-05-16T07:15:44;18.57;;;16.77;;
16442;SDS011;8331;51.654;14.376;2023-05-16T07:18:11;16.90;;;15.20;;
16442;SDS011;8331;51.654;14.376;2023-05-16T07:20:38;16.00;;;14.30;;
16442;SDS011;8331;51.654;14.376;2023-05-16T07:23:04;16.27;;;14.63;;
16442;SDS011;8331;51.654;14.376;2023-05-16T07:25:31;14.13;;;12.73;;
16442;SDS011;8331;51.654;14.376;2023-05-16T07:27:58;15.20;;;13.93;;
16442;SDS011;8331;51.654;14.376;2023-05-16T07:30:26;15.87;;;14.27;;
16442;SDS011;8331;51.654;14.376;2023-05-16T07:32:53;15.20;;;13.70;;
16442;SDS011;8331;51.654;14.376;2023-05-16T07:35:19;15.70;;;14.20;;
16442;SDS011;8331;51.654;14.376;2023-05-16T07:37:46;15.47;;;13.97;;
16442;SDS011;8331;51.654;14.376;2023-05-16T07:40:13;14.40;;;13.20;;
16442;SDS011;8331;51.654;14.376;2023-05-16T07:42:40;15.07;;;13.57;;
16442;SDS011;8331;51.654;14.376;2023-05-16T07:45:06;14.63;;;13.23;;
16442;SDS011;8331;51.654;14.376;2023-05-16T07:47:33;13.73;;;12.43;;
16442;SDS011;8331;51.654;14.376;2023-05-16T07:50:01;13.53;;;12.23;;
16442;SDS011;8331;51.654;14.376;2023-05-16T07:52:27;13.70;;;12.43;;
16442;SDS011;8331;51.654;14.376;2023-05-16T07:54:54;14.10;;;12.77;;
16442;SDS011;8331;51.654;14.376;2023-05-16T07:57:21;14.13;;;12.73;;
16442;SDS011;8331;51.654;14.376;2023-05-16T07:59:50;12.53;;;11.47;;
16442;SDS011;8331;51.654;14.376;2023-05-16T08:02:18;13.70;;;12.30;;
16442;SDS011;8331;51.654;14.376;2023-05-16T08:04:44;15.40;;;13.33;;
16442;SDS011;8331;51.654;14.376;2023-05-16T08:07:12;12.67;;;11.63;;
16442;SDS011;8331;51.654;14.376;2023-05-16T08:09:38;12.27;;;11.10;;
16442;SDS011;8331;51.654;14.376;2023-05-16T08:12:05;13.37;;;11.37;;
16442;SDS011;8331;51.654;14.376;2023-05-16T08:14:32;12.50;;;11.30;;
16442;SDS011;8331;51.654;14.376;2023-05-16T08:16:59;12.33;;;11.23;;
16442;SDS011;8331;51.654;14.376;2023-05-16T08:19:26;12.33;;;11.13;;
16442;SDS011;8331;51.654;14.376;2023-05-16T08:21:53;11.87;;;10.77;;
16442;SDS011;8331;51.654;14.376;2023-05-16T08:24:20;12.80;;;11.63;;
16442;SDS011;8331;51.654;14.376;2023-05-16T08:26:46;11.90;;;10.70;;
16442;SDS011;8331;51.654;14.376;2023-05-16T08:29:13;12.10;;;11.00;;
16442;SDS011;8331;51.654;14.376;2023-05-16T08:31:40;11.87;;;10.70;;
16442;SDS011;8331;51.654;14.376;2023-05-16T08:34:07;12.60;;;11.00;;
16442;SDS011;8331;51.654;14.376;2023-05-16T08:36:37;11.43;;;10.43;;
16442;SDS011;8331;51.654;14.376;2023-05-16T08:39:04;12.10;;;10.90;;
16442;SDS011;8331;51.654;14.376;2023-05-16T08:41:31;11.53;;;10.43;;
16442;SDS011;8331;51.654;14.376;2023-05-16T08:43:57;12.90;;;10.33;;
16442;SDS011;8331;51.654;14.376;2023-05-16T08:46:24;11.03;;;9.90;;
16442;SDS011;8331;51.654;14.376;2023-05-16T08:48:52;11.60;;;10.40;;
16442;SDS011;8331;51.654;14.376;2023-05-16T08:51:19;12.67;;;10.60;;
16442;SDS011;8331;51.654;14.376;2023-05-16T08:56:48;12.13;;;10.90;;
16442;SDS011;8331;51.654;14.376;2023-05-16T08:59:15;11.90;;;10.57;;
16442;SDS011;8331;51.654;14.376;2023-05-16T09:01:42;12.33;;;11.20;;
16442;SDS011;8331;51.654;14.376;2023-05-16T09:04:09;15.03;;;11.93;;
16442;SDS011;8331;51.654;14.376;2023-05-16T09:06:36;15.27;;;13.20;;
16442;SDS011;8331;51.654;14.376;2023-05-16T09:09:03;12.73;;;11.57;;
16442;SDS011;8331;51.654;14.376;2023-05-16T09:11:33;12.60;;;11.30;;
16442;SDS011;8331;51.654;14.376;2023-05-16T09:14:02;15.30;;;11.50;;
16442;SDS011;8331;51.654;14.376;2023-05-16T09:16:29;12.30;;;11.03;;
16442;SDS011;8331;51.654;14.376;2023-05-16T09:18:57;11.77;;;10.53;;
16442;SDS011;8331;51.654;14.376;2023-05-16T09:21:26;11.37;;;10.47;;
16442;SDS011;8331;51.654;14.376;2023-05-16T09:23:53;24.33;;;20.23;;
16442;SDS011;8331;51.654;14.376;2023-05-16T09:26:20;18.37;;;16.47;;
16442;SDS011;8331;51.654;14.376;2023-05-16T09:28:47;13.83;;;12.53;;
16442;SDS011;8331;51.654;14.376;2023-05-16T09:31:24;16.07;;;11.57;;
16442;SDS011;8331;51.654;14.376;2023-05-16T09:33:52;13.80;;;11.13;;
16442;SDS011;8331;51.654;14.376;2023-05-16T09:36:19;14.77;;;13.27;;
16442;SDS011;8331;51.654;14.376;2023-05-16T09:38:45;14.13;;;12.50;;
16442;SDS011;8331;51.654;14.376;2023-05-16T09:41:12;14.30;;;12.30;;
16442;SDS011;8331;51.654;14.376;2023-05-16T09:43:39;13.17;;;11.90;;
16442;SDS011;8331;51.654;14.376;2023-05-16T09:46:07;12.40;;;11.17;;
16442;SDS011;8331;51.654;14.376;2023-05-16T09:48:34;12.63;;;11.30;;
16442;SDS011;8331;51.654;14.376;2023-05-16T09:51:02;11.30;;;10.27;;
16442;SDS011;8331;51.654;14.376;2023-05-16T09:53:31;10.80;;;9.80;;
16442;SDS011;8331;51.654;14.376;2023-05-16T09:55:59;10.40;;;9.47;;
16442;SDS011;8331;51.654;14.376;2023-05-16T09:58:33;10.90;;;9.90;;
16442;SDS011;8331;51.654;14.376;2023-05-16T10:01:00;16.80;;;14.40;;
16442;SDS011;8331;51.654;14.376;2023-05-16T10:03:27;13.97;;;12.40;;
16442;SDS011;8331;51.654;14.376;2023-05-16T10:05:54;9.97;;;9.10;;
16442;SDS011;8331;51.654;14.376;2023-05-16T10:08:22;10.03;;;9.13;;
16442;SDS011;8331;51.654;14.376;2023-05-16T10:10:50;11.40;;;9.17;;
16442;SDS011;8331;51.654;14.376;2023-05-16T10:13:20;9.90;;;8.87;;
16442;SDS011;8331;51.654;14.376;2023-05-16T10:15:50;12.10;;;10.73;;
16442;SDS011;8331;51.654;14.376;2023-05-16T10:18:21;10.03;;;9.17;;
16442;SDS011;8331;51.654;14.376;2023-05-16T10:20:48;11.23;;;8.17;;
16442;SDS011;8331;51.654;14.376;2023-05-16T10:23:18;9.23;;;8.33;;
16442;SDS011;8331;51.654;14.376;2023-05-16T10:25:47;9.17;;;8.27;;
16442;SDS011;8331;51.654;14.376;2023-05-16T10:28:14;15.63;;;14.13;;
16442;SDS011;8331;51.654;14.376;2023-05-16T10:30:42;10.87;;;9.03;;
16442;SDS011;8331;51.654;14.376;2023-05-16T10:33:10;9.07;;;8.17;;
16442;SDS011;8331;51.654;14.376;2023-05-16T10:35:37;8.90;;;8.10;;
16442;SDS011;8331;51.654;14.376;2023-05-16T10:38:04;8.57;;;7.87;;
16442;SDS011;8331;51.654;14.376;2023-05-16T10:40:34;11.60;;;10.50;;
16442;SDS011;8331;51.654;14.376;2023-05-16T10:43:01;11.40;;;10.30;;
16442;SDS011;8331;51.654;14.376;2023-05-16T10:45:29;11.13;;;10.03;;
16442;SDS011;8331;51.654;14.376;2023-05-16T10:47:57;10.17;;;8.07;;
16442;SDS011;8331;51.654;14.376;2023-05-16T10:53:10;8.10;;;7.30;;
16442;SDS011;8331;51.654;14.376;2023-05-16T10:55:39;8.17;;;7.43;;
16442;SDS011;8331;51.654;14.376;2023-05-16T10:58:09;10.60;;;8.47;;
16442;SDS011;8331;51.654;14.376;2023-05-16T11:00:37;8.63;;;7.83;;
16442;SDS011;8331;51.654;14.376;2023-05-16T11:03:04;12.87;;;11.37;;
16442;SDS011;8331;51.654;14.376;2023-05-16T11:05:32;12.27;;;11.03;;
16442;SDS011;8331;51.654;14.376;2023-05-16T11:08:04;8.40;;;7.70;;
16442;SDS011;8331;51.654;14.376;2023-05-16T11:10:31;9.00;;;8.13;;
16442;SDS011;8331;51.654;14.376;2023-05-16T11:13:06;8.10;;;7.40;;
16442;SDS011;8331;51.654;14.376;2023-05-16T11:15:33;8.57;;;7.77;;
16442;SDS011;8331;51.654;14.376;2023-05-16T11:18:04;8.17;;;7.47;;
16442;SDS011;8331;51.654;14.376;2023-05-16T11:20:32;7.67;;;7.07;;
16442;SDS011;8331;51.654;14.376;2023-05-16T11:25:55;7.37;;;6.77;;
16442;SDS011;8331;51.654;14.376;2023-05-16T11:28:23;7.73;;;7.13;;
16442;SDS011;8331;51.654;14.376;2023-05-16T11:30:51;7.40;;;6.80;;
16442;SDS011;8331;51.654;14.376;2023-05-16T11:33:20;7.23;;;6.63;;
16442;SDS011;8331;51.654;14.376;2023-05-16T11:36:03;6.70;;;6.17;;
16442;SDS011;8331;51.654;14.376;2023-05-16T11:38:41;8.90;;;8.30;;
16442;SDS011;8331;51.654;14.376;2023-05-16T11:41:09;7.67;;;7.13;;
16442;SDS011;8331;51.654;14.376;2023-05-16T11:43:40;7.07;;;6.50;;
16442;SDS011;8331;51.654;14.376;2023-05-16T11:46:13;7.80;;;7.10;;
16442;SDS011;8331;51.654;14.376;2023-05-16T11:48:40;6.97;;;6.47;;
16442;SDS011;8331;51.654;14.376;2023-05-16T11:51:08;7.10;;;6.50;;
16442;SDS011;8331;51.654;14.376;2023-05-16T11:53:36;6.97;;;6.47;;
16442;SDS011;8331;51.654;14.376;2023-05-16T11:56:03;7.10;;;6.47;;
16442;SDS011;8331;51.654;14.376;2023-05-16T11:58:32;7.07;;;6.47;;
16442;SDS011;8331;51.654;14.376;2023-05-16T12:00:59;19.57;;;7.87;;
16442;SDS011;8331;51.654;14.376;2023-05-16T12:03:25;7.30;;;6.60;;
16442;SDS011;8331;51.654;14.376;2023-05-16T12:05:53;7.17;;;6.67;;
16442;SDS011;8331;51.654;14.376;2023-05-16T12:08:20;7.20;;;6.50;;
16442;SDS011;8331;51.654;14.376;2023-05-16T12:10:54;8.23;;;7.57;;
16442;SDS011;8331;51.654;14.376;2023-05-16T12:13:22;7.23;;;6.63;;
16442;SDS011;8331;51.654;14.376;2023-05-16T12:15:49;7.87;;;7.17;;
16442;SDS011;8331;51.654;14.376;2023-05-16T12:18:16;8.23;;;6.80;;
16442;SDS011;8331;51.654;14.376;2023-05-16T12:20:43;6.83;;;6.33;;
16442;SDS011;8331;51.654;14.376;2023-05-16T12:23:11;7.77;;;6.17;;
16442;SDS011;8331;51.654;14.376;2023-05-16T12:25:38;6.67;;;6.07;;
16442;SDS011;8331;51.654;14.376;2023-05-16T12:28:12;8.10;;;6.70;;
16442;SDS011;8331;51.654;14.376;2023-05-16T12:30:42;7.27;;;6.63;;
16442;SDS011;8331;51.654;14.376;2023-05-16T12:33:10;6.37;;;5.87;;
16442;SDS011;8331;51.654;14.376;2023-05-16T12:35:39;6.80;;;6.20;;
16442;SDS011;8331;51.654;14.376;2023-05-16T12:38:09;8.83;;;8.03;;
16442;SDS011;8331;51.654;14.376;2023-05-16T12:40:37;7.33;;;6.70;;
16442;SDS011;8331;51.654;14.376;2023-05-16T12:45:40;6.30;;;5.70;;
16442;SDS011;8331;51.654;14.376;2023-05-16T12:48:12;6.60;;;5.77;;
16442;SDS011;8331;51.654;14.376;2023-05-16T12:50:39;6.47;;;5.87;;
16442;SDS011;8331;51.654;14.376;2023-05-16T12:53:10;6.90;;;6.23;;
16442;SDS011;8331;51.654;14.376;2023-05-16T12:55:38;6.20;;;5.70;;
16442;SDS011;8331;51.654;14.376;2023-05-16T12:58:04;6.10;;;5.60;;
16442;SDS011;8331;51.654;14.376;2023-05-16T13:00:31;6.00;;;5.43;;
16442;SDS011;8331;51.654;14.376;2023-05-16T13:02:58;6.07;;;5.47;;
16442;SDS011;8331;51.654;14.376;2023-05-16T13:05:24;5.63;;;5.23;;
16442;SDS011;8331;51.654;14.376;2023-05-16T13:07:51;6.13;;;5.63;;
16442;SDS011;8331;51.654;14.376;2023-05-16T13:10:18;5.33;;;4.90;;
16442;SDS011;8331;51.654;14.376;2023-05-16T13:12:45;5.77;;;4.97;;
16442;SDS011;8331;51.654;14.376;2023-05-16T13:15:12;5.70;;;5.20;;
16442;SDS011;8331;51.654;14.376;2023-05-16T13:17:41;4.90;;;4.60;;
16442;SDS011;8331;51.654;14.376;2023-05-16T13:20:09;4.57;;;4.23;;
16442;SDS011;8331;51.654;14.376;2023-05-16T13:22:42;4.63;;;4.37;;
16442;SDS011;8331;51.654;14.376;2023-05-16T13:25:09;5.13;;;4.73;;
16442;SDS011;8331;51.654;14.376;2023-05-16T13:27:36;4.70;;;4.30;;
16442;SDS011;8331;51.654;14.376;2023-05-16T13:30:03;4.77;;;4.47;;
16442;SDS011;8331;51.654;14.376;2023-05-16T13:32:30;6.23;;;4.37;;
16442;SDS011;8331;51.654;14.376;2023-05-16T13:34:56;4.50;;;4.10;;
16442;SDS011;8331;51.654;14.376;2023-05-16T13:37:23;4.27;;;3.93;;
16442;SDS011;8331;51.654;14.376;2023-05-16T13:39:50;4.17;;;3.83;;
16442;SDS011;8331;51.654;14.376;2023-05-16T13:42:16;5.47;;;4.97;;
16442;SDS011;8331;51.654;14.376;2023-05-16T13:44:43;4.53;;;4.23;;
16442;SDS011;8331;51.654;14.376;2023-05-16T13:47:10;5.03;;;4.37;;
16442;SDS011;8331;51.654;14.376;2023-05-16T13:49:37;4.37;;;4.07;;
16442;SDS011;8331;51.654;14.376;2023-05-16T13:52:04;4.33;;;3.97;;
16442;SDS011;8331;51.654;14.376;2023-05-16T13:54:31;4.13;;;3.83;;
16442;SDS011;8331;51.654;14.376;2023-05-16T13:56:57;4.27;;;4.07;;
16442;SDS011;8331;51.654;14.376;2023-05-16T13:59:24;4.40;;;4.00;;
16442;SDS011;8331;51.654;14.376;2023-05-16T14:02:11;9.27;;;4.27;;
16442;SDS011;8331;51.654;14.376;2023-05-16T14:04:37;6.77;;;4.13;;
16442;SDS011;8331;51.654;14.376;2023-05-16T14:07:04;5.00;;;4.60;;
16442;SDS011;8331;51.654;14.376;2023-05-16T14:09:31;4.93;;;4.50;;
16442;SDS011;8331;51.654;14.376;2023-05-16T14:12:00;4.83;;;4.40;;
16442;SDS011;8331;51.654;14.376;2023-05-16T14:14:29;5.07;;;4.67;;
16442;SDS011;8331;51.654;14.376;2023-05-16T14:16:57;5.13;;;4.83;;
16442;SDS011;8331;51.654;14.376;2023-05-16T14:19:24;5.23;;;4.83;;
16442;SDS011;8331;51.654;14.376;2023-05-16T14:21:51;7.20;;;4.73;;
16442;SDS011;8331;51.654;14.376;2023-05-16T14:24:18;6.50;;;4.53;;
16442;SDS011;8331;51.654;14.376;2023-05-16T14:26:44;4.87;;;4.47;;
16442;SDS011;8331;51.654;14.376;2023-05-16T14:29:11;7.57;;;4.70;;
16442;SDS011;8331;51.654;14.376;2023-05-16T14:31:39;5.03;;;4.63;;
16442;SDS011;8331;51.654;14.376;2023-05-16T14:34:06;4.60;;;4.20;;
16442;SDS011;8331;51.654;14.376;2023-05-16T14:36:32;4.57;;;4.27;;
16442;SDS011;8331;51.654;14.376;2023-05-16T14:38:59;5.00;;;4.27;;
16442;SDS011;8331;51.654;14.376;2023-05-16T14:41:26;7.30;;;4.33;;
16442;SDS011;8331;51.654;14.376;2023-05-16T14:43:53;4.97;;;4.30;;
16442;SDS011;8331;51.654;14.376;2023-05-16T14:46:20;6.23;;;4.30;;
16442;SDS011;8331;51.654;14.376;2023-05-16T14:48:46;4.10;;;3.67;;
16442;SDS011;8331;51.654;14.376;2023-05-16T14:51:13;4.33;;;4.00;;
16442;SDS011;8331;51.654;14.376;2023-05-16T14:53:40;5.07;;;4.17;;
16442;SDS011;8331;51.654;14.376;2023-05-16T14:56:07;4.47;;;4.07;;
16442;SDS011;8331;51.654;14.376;2023-05-16T14:58:33;4.30;;;4.00;;